createdAt,value
2022-11-28T00:02:03.937Z,11.37
2022-11-28T00:04:32.590Z,13.60
2022-11-28T00:07:01.778Z,16.30
2022-11-28T00:09:32.146Z,12.93
2022-11-28T00:12:00.753Z,13.37
2022-11-28T00:14:29.509Z,11.87
2022-11-28T00:17:00.915Z,10.27
2022-11-28T00:19:29.559Z,11.53
2022-11-28T00:21:58.457Z,9.70
2022-11-28T00:24:27.695Z,14.37
2022-11-28T00:26:57.793Z,14.07
2022-11-28T00:29:26.340Z,11.37
2022-11-28T00:31:55.437Z,10.57
2022-11-28T00:34:24.081Z,13.87
2022-11-28T00:36:53.309Z,16.10
2022-11-28T00:39:21.926Z,15.00
2022-11-28T00:41:50.875Z,17.47
2022-11-28T00:44:20.914Z,16.07
2022-11-28T00:46:49.578Z,16.60
2022-11-28T00:49:18.255Z,15.10
2022-11-28T00:51:46.736Z,11.63
2022-11-28T00:54:15.382Z,11.47
2022-11-28T00:56:44.404Z,10.60
2022-11-28T00:59:12.993Z,13.67
2022-11-28T01:01:45.231Z,12.43
2022-11-28T01:04:16.303Z,12.17
2022-11-28T01:06:47.445Z,11.33
2022-11-28T01:09:19.213Z,10.77
2022-11-28T01:11:49.274Z,10.87
2022-11-28T01:14:20.786Z,13.83
2022-11-28T01:16:51.164Z,14.43
2022-11-28T01:19:22.373Z,13.33
2022-11-28T01:21:51.317Z,11.00
2022-11-28T01:24:20.273Z,12.27
2022-11-28T01:26:48.792Z,15.67
2022-11-28T01:29:17.988Z,12.70
2022-11-28T01:31:46.685Z,16.00
2022-11-28T01:34:16.751Z,20.07
2022-11-28T01:36:45.366Z,17.17
2022-11-28T01:39:15.861Z,14.40
2022-11-28T01:41:44.344Z,12.77
2022-11-28T01:44:52.198Z,15.20
2022-11-28T01:47:24.763Z,11.97
2022-11-28T01:49:56.915Z,12.03
2022-11-28T01:52:25.863Z,10.80
2022-11-28T01:54:59.138Z,11.33
2022-11-28T01:57:29.415Z,14.03
2022-11-28T02:00:02.588Z,12.40
2022-11-28T02:02:36.144Z,11.83
2022-11-28T02:05:06.801Z,13.20
2022-11-28T02:07:35.719Z,13.77
2022-11-28T02:10:07.828Z,11.43
2022-11-28T02:13:00.852Z,10.23
2022-11-28T02:15:41.835Z,12.53
2022-11-28T02:18:24.330Z,11.87
2022-11-28T02:21:24.107Z,10.73
2022-11-28T02:24:24.132Z,11.30
2022-11-28T02:27:18.426Z,13.07
2022-11-28T02:30:13.373Z,16.03
2022-11-28T02:33:01.194Z,11.83
2022-11-28T02:35:36.882Z,15.33
2022-11-28T02:38:20.327Z,13.53
2022-11-28T02:41:04.334Z,11.97
2022-11-28T02:43:40.964Z,13.63
2022-11-28T02:46:16.712Z,13.17
2022-11-28T02:48:52.036Z,15.53
2022-11-28T02:51:25.070Z,12.00
2022-11-28T02:53:55.150Z,14.37
2022-11-28T02:56:25.414Z,14.97
2022-11-28T02:58:54.214Z,13.53
2022-11-28T03:01:27.197Z,13.57
2022-11-28T03:04:26.874Z,15.30
2022-11-28T03:07:07.399Z,12.40
2022-11-28T03:10:01.865Z,11.90
2022-11-28T03:12:42.144Z,13.70
2022-11-28T03:15:13.525Z,13.23
2022-11-28T03:17:55.232Z,13.10
2022-11-28T03:20:32.839Z,16.43
2022-11-28T03:23:11.593Z,15.77
2022-11-28T03:25:49.336Z,15.90
2022-11-28T03:28:24.592Z,14.87
2022-11-28T03:30:58.392Z,19.47
2022-11-28T03:33:29.067Z,20.40
2022-11-28T03:36:05.030Z,18.90
2022-11-28T03:38:37.072Z,18.00
2022-11-28T03:41:12.341Z,19.10
2022-11-28T03:43:46.051Z,17.77
2022-11-28T03:46:20.025Z,17.67
2022-11-28T03:48:52.220Z,16.90
2022-11-28T03:51:26.735Z,18.53
2022-11-28T03:53:59.955Z,23.03
2022-11-28T03:56:36.423Z,19.53
2022-11-28T03:59:11.828Z,22.27
2022-11-28T04:01:49.800Z,19.13
2022-11-28T04:04:26.071Z,27.23
2022-11-28T04:07:00.400Z,23.60
2022-11-28T04:09:41.040Z,19.60
2022-11-28T04:12:14.393Z,17.20
2022-11-28T04:14:48.686Z,16.67
2022-11-28T04:17:20.912Z,20.13
2022-11-28T04:19:55.608Z,20.07
2022-11-28T04:22:30.534Z,22.20
2022-11-28T04:25:03.263Z,20.53
2022-11-28T04:27:36.969Z,16.43
2022-11-28T04:30:07.745Z,14.30
2022-11-28T04:32:40.624Z,18.10
2022-11-28T04:35:13.698Z,17.80
2022-11-28T04:37:48.868Z,18.63
2022-11-28T04:40:19.778Z,17.73
2022-11-28T04:42:53.231Z,18.27
2022-11-28T04:45:27.652Z,17.13
2022-11-28T04:47:56.586Z,17.33
2022-11-28T04:50:30.371Z,17.50
2022-11-28T04:53:06.009Z,18.00
2022-11-28T04:55:40.165Z,18.07
2022-11-28T04:58:14.764Z,15.80
2022-11-28T05:00:45.772Z,15.60
2022-11-28T05:03:14.676Z,14.43
2022-11-28T05:05:46.303Z,17.23
2022-11-28T05:08:16.327Z,18.67
2022-11-28T05:10:44.830Z,21.50
2022-11-28T05:13:13.373Z,18.63
2022-11-28T05:15:41.879Z,19.83
2022-11-28T05:18:10.506Z,18.43
2022-11-28T05:20:40.058Z,19.07
2022-11-28T05:23:08.884Z,19.97
2022-11-28T05:25:40.946Z,13.10
2022-11-28T05:28:09.969Z,13.57
2022-11-28T05:30:38.949Z,15.87
2022-11-28T05:33:07.542Z,14.63
2022-11-28T05:35:36.025Z,15.67
2022-11-28T05:38:08.188Z,17.17
2022-11-28T05:40:44.458Z,14.97
2022-11-28T05:43:13.193Z,16.87
2022-11-28T05:45:42.509Z,13.57
2022-11-28T05:48:11.359Z,14.43
2022-11-28T05:50:40.806Z,14.10
2022-11-28T05:53:09.405Z,16.73
2022-11-28T05:55:41.493Z,16.73
2022-11-28T05:58:10.022Z,17.07
2022-11-28T06:00:38.867Z,18.10
2022-11-28T06:03:07.469Z,16.33
2022-11-28T06:05:42.766Z,15.70
2022-11-28T06:08:13.388Z,17.93
2022-11-28T06:10:43.371Z,22.97
2022-11-28T06:13:12.267Z,15.90
2022-11-28T06:15:45.802Z,16.57
2022-11-28T06:18:14.362Z,17.87
2022-11-28T06:20:42.929Z,17.47
2022-11-28T06:23:11.676Z,15.93
2022-11-28T06:25:40.301Z,15.47
2022-11-28T06:28:10.692Z,18.40
2022-11-28T06:30:39.231Z,22.07
2022-11-28T06:33:07.727Z,18.93
2022-11-28T06:35:36.161Z,17.10
2022-11-28T06:38:04.799Z,13.50
2022-11-28T06:40:33.714Z,14.37
2022-11-28T06:43:02.686Z,16.50
2022-11-28T06:45:32.766Z,14.37
2022-11-28T06:48:01.812Z,19.27
2022-11-28T06:50:30.411Z,19.47
2022-11-28T06:52:59.015Z,15.60
2022-11-28T06:55:27.572Z,20.37
2022-11-28T06:57:56.111Z,18.13
2022-11-28T07:00:25.267Z,18.67
2022-11-28T07:02:55.652Z,18.57
2022-11-28T07:05:27.806Z,17.37
2022-11-28T07:07:56.751Z,18.17
2022-11-28T07:10:26.075Z,17.53
2022-11-28T07:13:03.791Z,22.00
2022-11-28T07:15:34.346Z,34.27
2022-11-28T07:18:04.511Z,30.13
2022-11-28T07:20:33.007Z,39.37
2022-11-28T07:23:01.970Z,40.37
2022-11-28T07:25:30.559Z,113.00
2022-11-28T07:27:59.167Z,66.93
2022-11-28T07:30:27.893Z,69.40
2022-11-28T07:32:56.962Z,47.67
2022-11-28T07:35:26.925Z,41.13
2022-11-28T07:37:55.617Z,34.57
2022-11-28T07:40:24.366Z,30.13
2022-11-28T07:42:53.458Z,60.23
2022-11-28T07:45:23.024Z,35.87
2022-11-28T07:47:51.686Z,33.27
2022-11-28T07:50:20.446Z,19.07
2022-11-28T07:52:52.051Z,22.97
2022-11-28T07:55:20.558Z,19.70
2022-11-28T07:57:49.125Z,18.70
2022-11-28T08:00:19.897Z,18.03
2022-11-28T08:02:48.495Z,17.13
2022-11-28T08:05:17.059Z,19.57
2022-11-28T08:07:45.704Z,23.47
2022-11-28T08:10:16.267Z,19.43
2022-11-28T08:12:45.094Z,16.37
2022-11-28T08:15:13.910Z,16.47
2022-11-28T08:17:42.535Z,17.43
2022-11-28T08:20:12.205Z,14.97
2022-11-28T08:22:40.873Z,17.20
2022-11-28T08:25:10.303Z,15.57
2022-11-28T08:27:40.456Z,16.00
2022-11-28T08:30:10.963Z,13.57
2022-11-28T08:32:39.658Z,15.47
2022-11-28T08:35:09.004Z,14.33
2022-11-28T08:37:37.605Z,15.90
2022-11-28T08:40:07.459Z,15.43
2022-11-28T08:42:36.034Z,14.10
2022-11-28T08:45:08.174Z,13.40
2022-11-28T08:47:36.828Z,16.00
2022-11-28T08:50:06.248Z,15.57
2022-11-28T08:52:35.038Z,16.07
2022-11-28T08:55:04.400Z,14.80
2022-11-28T08:57:33.008Z,14.70
2022-11-28T09:00:01.847Z,14.83
2022-11-28T09:02:32.009Z,15.67
2022-11-28T09:05:00.630Z,14.80
2022-11-28T09:07:29.386Z,14.67
2022-11-28T09:09:58.346Z,13.00
2022-11-28T09:12:26.973Z,17.43
2022-11-28T09:14:55.676Z,14.33
2022-11-28T09:17:25.120Z,14.70
2022-11-28T09:19:55.392Z,13.30
2022-11-28T09:22:24.135Z,13.53
2022-11-28T09:24:52.788Z,14.33
2022-11-28T09:27:21.397Z,16.40
2022-11-28T09:29:50.439Z,13.73
2022-11-28T09:32:19.343Z,17.47
2022-11-28T09:34:48.174Z,12.23
2022-11-28T09:37:18.500Z,11.97
2022-11-28T09:40:11.487Z,13.03
2022-11-28T09:42:42.262Z,12.03
2022-11-28T09:45:16.152Z,12.80
2022-11-28T09:47:49.560Z,14.83
2022-11-28T09:50:22.849Z,17.40
2022-11-28T09:53:00.232Z,13.20
2022-11-28T09:55:36.785Z,13.13
2022-11-28T09:58:13.316Z,15.00
2022-11-28T10:00:51.425Z,11.63
2022-11-28T10:03:40.161Z,11.80
2022-11-28T10:06:19.042Z,12.57
2022-11-28T10:09:09.328Z,12.80
2022-11-28T10:11:51.416Z,13.60
2022-11-28T10:14:47.572Z,17.10
2022-11-28T10:17:26.221Z,14.20
2022-11-28T10:19:59.941Z,13.53
2022-11-28T10:22:36.243Z,15.93
2022-11-28T10:25:13.830Z,15.70
2022-11-28T10:27:43.561Z,30.13
2022-11-28T10:30:22.081Z,29.33
2022-11-28T10:32:58.171Z,21.00
2022-11-28T10:35:33.810Z,20.63
2022-11-28T10:38:03.626Z,17.80
2022-11-28T10:40:40.959Z,16.23
2022-11-28T10:43:21.042Z,13.73
2022-11-28T10:45:57.821Z,15.67
2022-11-28T10:48:40.653Z,13.10
2022-11-28T10:51:22.564Z,14.93
2022-11-28T10:54:06.091Z,13.93
2022-11-28T10:56:44.294Z,16.03
2022-11-28T10:59:20.798Z,15.30
2022-11-28T11:01:52.226Z,18.67
2022-11-28T11:04:24.342Z,29.93
2022-11-28T11:07:11.475Z,16.43
2022-11-28T11:09:45.288Z,21.10
2022-11-28T11:12:23.084Z,19.13
2022-11-28T11:14:51.932Z,19.73
2022-11-28T11:17:31.358Z,16.80
2022-11-28T11:20:20.301Z,16.20
2022-11-28T11:22:57.491Z,17.37
2022-11-28T11:25:27.470Z,21.10
2022-11-28T11:28:01.087Z,25.13
2022-11-28T11:30:32.727Z,29.30
2022-11-28T11:33:03.368Z,25.93
2022-11-28T11:35:36.250Z,24.43
2022-11-28T11:38:19.434Z,20.50
2022-11-28T11:40:48.796Z,20.27
2022-11-28T11:43:35.902Z,17.43
2022-11-28T11:46:10.150Z,17.50
2022-11-28T11:48:42.102Z,15.90
2022-11-28T11:51:25.115Z,22.27
2022-11-28T11:54:05.298Z,17.57
2022-11-28T11:56:38.588Z,17.40
2022-11-28T11:59:15.357Z,19.90
2022-11-28T12:01:51.082Z,19.83
2022-11-28T12:04:44.445Z,17.80
2022-11-28T12:07:24.057Z,17.80
2022-11-28T12:09:55.041Z,22.03
2022-11-28T12:12:26.979Z,21.67
2022-11-28T12:14:57.669Z,20.17
2022-11-28T12:17:48.831Z,23.80
2022-11-28T12:20:39.251Z,20.43
2022-11-28T12:23:34.777Z,24.27
2022-11-28T12:26:11.620Z,22.47
2022-11-28T12:28:50.958Z,19.50
2022-11-28T12:31:31.847Z,41.13
2022-11-28T12:34:11.251Z,31.93
2022-11-28T12:36:48.553Z,38.20
2022-11-28T12:39:24.510Z,35.47
2022-11-28T12:42:22.354Z,33.43
2022-11-28T12:45:24.927Z,38.13
2022-11-28T12:48:06.842Z,31.53
2022-11-28T12:50:41.153Z,28.40
2022-11-28T12:53:31.305Z,25.97
2022-11-28T12:56:09.267Z,29.73
2022-11-28T12:58:45.729Z,24.03
2022-11-28T13:01:28.946Z,32.33
2022-11-28T13:04:07.089Z,25.73
2022-11-28T13:06:43.773Z,31.17
2022-11-28T13:09:39.142Z,26.83
2022-11-28T13:12:22.039Z,29.43
2022-11-28T13:14:56.766Z,51.90
2022-11-28T13:17:39.380Z,35.07
2022-11-28T13:20:21.854Z,44.03
2022-11-28T13:23:00.944Z,47.97
2022-11-28T13:25:39.591Z,34.53
2022-11-28T13:28:17.895Z,57.00
2022-11-28T13:30:52.629Z,41.33
2022-11-28T13:33:49.407Z,35.57
2022-11-28T13:39:28.970Z,25.60
2022-11-28T13:42:36.154Z,19.70
2022-11-28T13:45:00.659Z,20.97
2022-11-28T13:47:35.531Z,21.23
2022-11-28T13:50:42.967Z,32.40
2022-11-28T13:53:26.752Z,23.50
2022-11-28T13:56:23.202Z,21.13
2022-11-28T13:58:55.223Z,23.77
2022-11-28T14:01:26.323Z,27.20
2022-11-28T14:04:08.707Z,21.37
2022-11-28T14:06:45.252Z,29.17
2022-11-28T14:09:32.487Z,30.63
2022-11-28T14:12:20.443Z,28.97
2022-11-28T14:15:19.412Z,23.07
2022-11-28T14:18:24.747Z,25.83
2022-11-28T14:21:01.264Z,25.97
2022-11-28T14:23:36.710Z,25.63
2022-11-28T14:26:14.924Z,27.97
2022-11-28T14:28:46.796Z,29.03
2022-11-28T14:31:30.951Z,28.63
2022-11-28T14:34:02.196Z,25.60
2022-11-28T14:36:34.294Z,31.57
2022-11-28T14:39:21.442Z,25.70
2022-11-28T14:42:59.953Z,28.47
2022-11-28T14:45:46.564Z,34.00
2022-11-28T14:48:32.401Z,28.77
2022-11-28T14:51:02.632Z,29.87
2022-11-28T14:54:01.455Z,36.53
2022-11-28T14:56:33.607Z,32.10
2022-11-28T14:59:06.969Z,38.70
2022-11-28T15:01:49.699Z,34.97
2022-11-28T15:04:44.925Z,45.80
2022-11-28T15:07:28.970Z,39.73
2022-11-28T15:10:07.883Z,38.13
2022-11-28T15:12:49.117Z,38.90
2022-11-28T15:15:24.350Z,31.17
2022-11-28T15:17:57.384Z,45.40
2022-11-28T15:20:32.387Z,40.63
2022-11-28T15:23:01.662Z,51.80
2022-11-28T15:25:37.693Z,44.47
2022-11-28T15:28:16.977Z,47.23
2022-11-28T15:30:51.920Z,38.93
2022-11-28T15:33:23.622Z,43.23
2022-11-28T15:36:10.967Z,31.40
2022-11-28T15:38:43.172Z,37.97
2022-11-28T15:41:14.523Z,49.23
2022-11-28T15:43:47.479Z,43.23
2022-11-28T15:46:21.138Z,42.53
2022-11-28T15:48:53.249Z,35.07
2022-11-28T15:51:29.847Z,42.33
2022-11-28T15:53:59.748Z,55.37
2022-11-28T15:56:29.459Z,70.33
2022-11-28T15:59:00.680Z,50.17
2022-11-28T16:01:30.446Z,45.47
2022-11-28T16:04:04.167Z,45.00
2022-11-28T16:06:40.202Z,35.27
2022-11-28T16:09:34.306Z,45.53
2022-11-28T16:12:06.648Z,33.23
2022-11-28T16:14:45.015Z,48.20
2022-11-28T16:17:20.965Z,49.90
2022-11-28T16:19:54.137Z,59.97
2022-11-28T16:22:35.197Z,48.60
2022-11-28T16:25:16.587Z,41.40
2022-11-28T16:27:52.283Z,35.80
2022-11-28T16:30:30.356Z,36.83
2022-11-28T16:33:00.293Z,38.63
2022-11-28T16:35:33.394Z,33.30
2022-11-28T16:38:07.942Z,32.57
2022-11-28T16:40:40.321Z,35.40
2022-11-28T16:43:23.296Z,36.23
2022-11-28T16:46:02.755Z,40.33
2022-11-28T16:48:36.760Z,48.07
2022-11-28T16:51:34.248Z,40.87
2022-11-28T16:54:40.117Z,42.03
2022-11-28T16:57:14.872Z,37.87
2022-11-28T16:59:45.112Z,31.90
2022-11-28T17:02:22.978Z,30.03
2022-11-28T17:04:55.861Z,39.23
2022-11-28T17:07:27.360Z,37.97
2022-11-28T17:09:56.827Z,29.63
2022-11-28T17:12:28.372Z,34.33
2022-11-28T17:14:59.107Z,30.43
2022-11-28T17:17:29.754Z,30.30
2022-11-28T17:20:14.015Z,41.37
2022-11-28T17:22:50.358Z,37.07
2022-11-28T17:25:22.486Z,32.70
2022-11-28T17:27:55.165Z,38.80
2022-11-28T17:30:28.029Z,36.33
2022-11-28T17:33:00.453Z,35.50
2022-11-28T17:35:43.947Z,48.60
2022-11-28T17:38:17.347Z,41.23
2022-11-28T17:40:48.943Z,48.87
2022-11-28T17:43:19.125Z,35.83
2022-11-28T17:45:51.265Z,43.43
2022-11-28T17:48:20.948Z,45.37
2022-11-28T17:50:56.654Z,54.13
2022-11-28T17:53:28.089Z,50.33
2022-11-28T17:55:59.560Z,39.00
2022-11-28T17:58:31.281Z,39.63
2022-11-28T18:01:01.529Z,37.07
2022-11-28T18:03:31.168Z,35.83
2022-11-28T18:06:07.231Z,34.77
2022-11-28T18:08:38.777Z,40.77
2022-11-28T18:11:13.491Z,37.90
2022-11-28T18:13:43.296Z,31.43
2022-11-28T18:16:16.435Z,44.43
2022-11-28T18:18:46.338Z,39.37
2022-11-28T18:21:19.966Z,40.33
2022-11-28T18:23:57.141Z,40.00
2022-11-28T18:26:29.941Z,37.63
2022-11-28T18:28:59.532Z,33.43
2022-11-28T18:31:33.138Z,44.33
2022-11-28T18:34:04.244Z,43.53
2022-11-28T18:36:37.846Z,54.30
2022-11-28T18:39:11.234Z,46.10
2022-11-28T18:41:45.959Z,44.17
2022-11-28T18:44:15.811Z,59.10
2022-11-28T18:46:46.548Z,43.83
2022-11-28T18:49:20.132Z,45.07
2022-11-28T18:51:50.468Z,61.33
2022-11-28T18:54:23.454Z,48.07
2022-11-28T18:56:54.554Z,52.20
2022-11-28T18:59:24.526Z,52.90
2022-11-28T19:01:56.420Z,57.93
2022-11-28T19:04:29.303Z,51.57
2022-11-28T19:07:00.849Z,55.67
2022-11-28T19:09:33.164Z,47.30
2022-11-28T19:12:02.928Z,56.30
2022-11-28T19:14:48.391Z,48.80
2022-11-28T19:17:21.983Z,49.20
2022-11-28T19:19:56.390Z,36.83
2022-11-28T19:22:28.518Z,68.83
2022-11-28T19:25:01.746Z,77.17
2022-11-28T19:27:36.140Z,76.90
2022-11-28T19:30:07.963Z,74.63
2022-11-28T19:32:38.152Z,85.03
2022-11-28T19:35:08.585Z,88.17
2022-11-28T19:37:38.118Z,102.47
2022-11-28T19:40:11.843Z,74.07
2022-11-28T19:42:47.922Z,68.77
2022-11-28T19:45:17.635Z,73.63
2022-11-28T19:47:52.289Z,85.23
2022-11-28T19:50:21.626Z,65.00
2022-11-28T19:52:51.838Z,73.87
2022-11-28T19:55:22.577Z,61.40
2022-11-28T19:57:55.702Z,81.07
2022-11-28T20:00:26.878Z,66.10
2022-11-28T20:02:58.798Z,71.53
2022-11-28T20:05:31.015Z,66.83
2022-11-28T20:08:00.677Z,59.27
2022-11-28T20:10:37.959Z,56.83
2022-11-28T20:13:07.991Z,53.50
2022-11-28T20:15:40.654Z,56.60
2022-11-28T20:18:11.265Z,57.13
2022-11-28T20:20:51.026Z,50.47
2022-11-28T20:23:35.657Z,46.33
2022-11-28T20:26:07.816Z,45.60
2022-11-28T20:28:42.982Z,54.13
2022-11-28T20:31:21.638Z,53.87
2022-11-28T20:34:08.067Z,47.07
2022-11-28T20:36:44.135Z,43.53
2022-11-28T20:39:15.718Z,48.60
2022-11-28T20:41:46.708Z,39.23
2022-11-28T20:44:18.401Z,43.87
2022-11-28T20:46:50.170Z,44.33
2022-11-28T20:49:21.076Z,40.30
2022-11-28T20:51:50.657Z,38.93
2022-11-28T20:54:26.831Z,40.33
2022-11-28T20:57:20.230Z,127.90
2022-11-28T20:59:47.072Z,105.17
2022-11-28T21:02:16.524Z,83.43
2022-11-28T21:04:45.959Z,73.40
2022-11-28T21:07:15.623Z,59.20
2022-11-28T21:09:47.682Z,49.43
2022-11-28T21:12:21.131Z,48.37
2022-11-28T21:14:52.335Z,46.37
2022-11-28T21:17:21.503Z,40.53
2022-11-28T21:19:56.782Z,49.30
2022-11-28T21:22:27.585Z,38.13
2022-11-28T21:24:56.554Z,41.93
2022-11-28T21:27:27.252Z,41.90
2022-11-28T21:29:56.977Z,42.20
2022-11-28T21:32:25.909Z,44.63
2022-11-28T21:34:57.367Z,38.17
2022-11-28T21:37:30.237Z,37.83
2022-11-28T21:39:59.261Z,39.03
2022-11-28T21:42:29.598Z,37.60
2022-11-28T21:44:59.223Z,39.53
2022-11-28T21:47:28.024Z,30.63
2022-11-28T21:49:56.908Z,42.80
2022-11-28T21:52:26.191Z,34.33
2022-11-28T21:54:55.844Z,37.57
2022-11-28T21:57:25.978Z,33.43
2022-11-28T21:59:56.657Z,40.93
2022-11-28T22:02:30.619Z,35.77
2022-11-28T22:05:00.521Z,37.50
2022-11-28T22:07:29.749Z,39.60
2022-11-28T22:10:42.738Z,36.27
2022-11-28T22:13:11.702Z,35.33
2022-11-28T22:15:44.049Z,34.30
2022-11-28T22:18:13.699Z,41.40
2022-11-28T22:20:50.202Z,42.57
2022-11-28T22:23:22.413Z,40.67
2022-11-28T22:25:54.715Z,36.93
2022-11-28T22:28:23.512Z,37.63
2022-11-28T22:30:54.279Z,43.03
2022-11-28T22:33:23.171Z,40.80
2022-11-28T22:35:52.233Z,34.27
2022-11-28T22:38:21.403Z,33.90
2022-11-28T22:40:50.330Z,39.20
2022-11-28T22:43:19.273Z,37.77
2022-11-28T22:45:58.973Z,33.03
2022-11-28T22:48:27.914Z,42.83
2022-11-28T22:50:59.134Z,40.50
2022-11-28T22:53:30.411Z,33.00
2022-11-28T22:56:05.967Z,41.17
2022-11-28T22:58:42.120Z,40.53
2022-11-28T23:01:17.924Z,38.23
2022-11-28T23:03:47.567Z,34.97
2022-11-28T23:06:19.934Z,39.27
2022-11-28T23:08:49.652Z,41.90
2022-11-28T23:11:21.975Z,35.47
2022-11-28T23:13:51.714Z,34.17
2022-11-28T23:16:23.710Z,39.13
2022-11-28T23:18:57.302Z,35.43
2022-11-28T23:21:28.066Z,38.57
2022-11-28T23:23:56.760Z,36.20
2022-11-28T23:26:29.760Z,42.63
2022-11-28T23:29:00.867Z,38.87
2022-11-28T23:31:34.004Z,48.53
2022-11-28T23:34:03.353Z,49.10
2022-11-28T23:36:40.058Z,40.70
2022-11-28T23:39:12.989Z,36.60
2022-11-28T23:41:42.424Z,34.27
2022-11-28T23:44:12.854Z,43.23
2022-11-28T23:46:43.763Z,45.50
2022-11-28T23:49:13.137Z,50.53
2022-11-28T23:51:42.340Z,47.27
2022-11-28T23:54:12.742Z,54.70
2022-11-28T23:56:43.019Z,48.90
2022-11-28T23:59:13.393Z,72.90
